sensor_id;sensor_type;location;lat;lon;timestamp;pressure;altitude;pressure_sealevel;temperature;humidity
79703;BME280;69172;52.352;5.006;2023-06-26T00:01:14;101170.94;;;25.13;52.47
79703;BME280;69172;52.352;5.006;2023-06-26T00:03:40;101169.19;;;25.10;52.64
79703;BME280;69172;52.352;5.006;2023-06-26T00:06:05;101155.13;;;25.01;52.81
79703;BME280;69172;52.352;5.006;2023-06-26T00:08:31;101158.63;;;24.98;53.03
79703;BME280;69172;52.352;5.006;2023-06-26T00:10:56;101153.34;;;24.91;53.27
79703;BME280;69172;52.352;5.006;2023-06-26T00:13:23;101152.47;;;24.82;53.42
79703;BME280;69172;52.352;5.006;2023-06-26T00:15:48;101152.41;;;24.75;53.48
79703;BME280;69172;52.352;5.006;2023-06-26T00:18:14;101146.25;;;24.70;53.81
79703;BME280;69172;52.352;5.006;2023-06-26T00:20:39;101145.38;;;24.66;53.66
79703;BME280;69172;52.352;5.006;2023-06-26T00:23:04;101139.22;;;24.64;53.59
79703;BME280;69172;52.352;5.006;2023-06-26T00:25:35;101142.72;;;24.62;54.06
79703;BME280;69172;52.352;5.006;2023-06-26T00:28:01;101139.19;;;24.60;53.94
79703;BME280;69172;52.352;5.006;2023-06-26T00:30:26;101154.09;;;24.58;54.33
79703;BME280;69172;52.352;5.006;2023-06-26T00:32:52;101154.97;;;24.58;54.65
79703;BME280;69172;52.352;5.006;2023-06-26T00:35:18;101157.59;;;24.55;54.30
79703;BME280;69172;52.352;5.006;2023-06-26T00:37:44;101164.59;;;24.55;53.83
79703;BME280;69172;52.352;5.006;2023-06-26T00:40:09;101160.22;;;24.51;52.50
79703;BME280;69172;52.352;5.006;2023-06-26T00:42:35;101166.38;;;24.57;52.25
79703;BME280;69172;52.352;5.006;2023-06-26T00:45:00;101165.50;;;24.60;51.04
79703;BME280;69172;52.352;5.006;2023-06-26T00:47:26;101167.25;;;24.56;50.08
79703;BME280;69172;52.352;5.006;2023-06-26T00:49:52;101172.50;;;24.53;49.75
79703;BME280;69172;52.352;5.006;2023-06-26T00:52:19;101174.16;;;24.36;50.58
79703;BME280;69172;52.352;5.006;2023-06-26T00:54:45;101179.31;;;24.10;51.45
79703;BME280;69172;52.352;5.006;2023-06-26T00:57:11;101175.69;;;23.99;52.38
79703;BME280;69172;52.352;5.006;2023-06-26T00:59:36;101175.53;;;23.80;53.57
79703;BME280;69172;52.352;5.006;2023-06-26T01:02:01;101178.94;;;23.63;54.32
79703;BME280;69172;52.352;5.006;2023-06-26T01:04:27;101180.53;;;23.45;54.98
79703;BME280;69172;52.352;5.006;2023-06-26T01:06:57;101183.88;;;23.33;55.77
79703;BME280;69172;52.352;5.006;2023-06-26T01:09:24;101179.38;;;23.20;56.32
79703;BME280;69172;52.352;5.006;2023-06-26T01:11:50;101193.22;;;23.05;57.02
79703;BME280;69172;52.352;5.006;2023-06-26T01:14:16;101200.97;;;22.95;57.46
79703;BME280;69172;52.352;5.006;2023-06-26T01:16:43;101196.41;;;22.77;58.09
79703;BME280;69172;52.352;5.006;2023-06-26T01:19:27;101190.25;;;22.74;58.49
79703;BME280;69172;52.352;5.006;2023-06-26T01:22:13;101203.22;;;22.65;58.83
79703;BME280;69172;52.352;5.006;2023-06-26T01:24:46;101195.38;;;22.65;58.96
79703;BME280;69172;52.352;5.006;2023-06-26T01:27:19;101192.63;;;22.56;59.59
79703;BME280;69172;52.352;5.006;2023-06-26T01:29:47;101197.59;;;22.37;60.52
79703;BME280;69172;52.352;5.006;2023-06-26T01:32:14;101194.78;;;22.22;60.84
79703;BME280;69172;52.352;5.006;2023-06-26T01:34:39;101189.53;;;22.22;61.24
79703;BME280;69172;52.352;5.006;2023-06-26T01:37:05;101192.91;;;22.14;61.80
79703;BME280;69172;52.352;5.006;2023-06-26T01:39:31;101188.34;;;22.01;62.15
79703;BME280;69172;52.352;5.006;2023-06-26T01:41:57;101176.78;;;21.86;63.12
79703;BME280;69172;52.352;5.006;2023-06-26T01:44:35;101191.66;;;21.87;62.76
79703;BME280;69172;52.352;5.006;2023-06-26T01:47:05;101182.03;;;21.88;63.18
79703;BME280;69172;52.352;5.006;2023-06-26T01:49:51;101187.84;;;21.72;63.85
79703;BME280;69172;52.352;5.006;2023-06-26T01:52:25;101186.91;;;21.65;63.88
79703;BME280;69172;52.352;5.006;2023-06-26T01:57:17;101209.31;;;21.50;64.54
79703;BME280;69172;52.352;5.006;2023-06-26T01:59:46;101201.38;;;21.45;65.51
79703;BME280;69172;52.352;5.006;2023-06-26T02:02:11;101216.22;;;21.46;65.12
79703;BME280;69172;52.352;5.006;2023-06-26T02:04:37;101206.53;;;21.41;65.12
79703;BME280;69172;52.352;5.006;2023-06-26T02:07:03;101219.38;;;21.27;65.77
79703;BME280;69172;52.352;5.006;2023-06-26T02:09:28;101214.06;;;21.22;66.49
79703;BME280;69172;52.352;5.006;2023-06-26T02:11:53;101222.75;;;21.21;66.49
79703;BME280;69172;52.352;5.006;2023-06-26T02:14:19;101202.59;;;21.17;66.74
79703;BME280;69172;52.352;5.006;2023-06-26T02:16:44;101196.59;;;21.21;66.63
79703;BME280;69172;52.352;5.006;2023-06-26T02:19:09;101201.91;;;21.26;66.79
79703;BME280;69172;52.352;5.006;2023-06-26T02:21:35;101206.06;;;21.15;66.76
79703;BME280;69172;52.352;5.006;2023-06-26T02:24:01;101213.94;;;21.16;66.43
79703;BME280;69172;52.352;5.006;2023-06-26T02:26:26;101230.34;;;21.08;67.18
79703;BME280;69172;52.352;5.006;2023-06-26T02:28:53;101239.97;;;21.09;66.57
79703;BME280;69172;52.352;5.006;2023-06-26T02:31:18;101217.09;;;21.02;67.63
79703;BME280;69172;52.352;5.006;2023-06-26T02:33:44;101224.13;;;21.04;67.52
79703;BME280;69172;52.352;5.006;2023-06-26T02:36:10;101225.56;;;20.87;67.74
79703;BME280;69172;52.352;5.006;2023-06-26T02:38:36;101214.91;;;20.78;67.84
79703;BME280;69172;52.352;5.006;2023-06-26T02:41:01;101217.19;;;20.63;68.50
79703;BME280;69172;52.352;5.006;2023-06-26T02:43:27;101227.53;;;20.58;69.02
79703;BME280;69172;52.352;5.006;2023-06-26T02:45:52;101225.53;;;20.45;69.15
79703;BME280;69172;52.352;5.006;2023-06-26T02:48:17;101223.69;;;20.41;69.39
79703;BME280;69172;52.352;5.006;2023-06-26T02:50:43;101229.56;;;20.31;69.95
79703;BME280;69172;52.352;5.006;2023-06-26T02:53:11;101228.56;;;20.25;70.08
79703;BME280;69172;52.352;5.006;2023-06-26T02:55:36;101227.59;;;20.23;70.56
79703;BME280;69172;52.352;5.006;2023-06-26T02:58:02;101231.88;;;20.19;70.51
79703;BME280;69172;52.352;5.006;2023-06-26T03:00:27;101236.91;;;20.11;70.95
79703;BME280;69172;52.352;5.006;2023-06-26T03:02:55;101234.50;;;20.20;70.75
79703;BME280;69172;52.352;5.006;2023-06-26T03:05:20;101232.72;;;20.18;70.81
79703;BME280;69172;52.352;5.006;2023-06-26T03:07:47;101239.59;;;20.14;70.69
79703;BME280;69172;52.352;5.006;2023-06-26T03:10:13;101248.22;;;20.10;71.17
79703;BME280;69172;52.352;5.006;2023-06-26T03:12:38;101243.91;;;20.12;71.02
79703;BME280;69172;52.352;5.006;2023-06-26T03:15:04;101252.63;;;20.13;70.98
79703;BME280;69172;52.352;5.006;2023-06-26T03:17:29;101247.41;;;20.14;71.08
79703;BME280;69172;52.352;5.006;2023-06-26T03:19:54;101255.31;;;20.16;70.92
79703;BME280;69172;52.352;5.006;2023-06-26T03:22:20;101272.78;;;20.20;70.72
79703;BME280;69172;52.352;5.006;2023-06-26T03:24:45;101272.72;;;20.17;70.63
79703;BME280;69172;52.352;5.006;2023-06-26T03:27:12;101279.09;;;20.27;70.14
79703;BME280;69172;52.352;5.006;2023-06-26T03:29:39;101279.94;;;20.26;70.62
79703;BME280;69172;52.352;5.006;2023-06-26T03:32:04;101276.38;;;20.24;69.91
79703;BME280;69172;52.352;5.006;2023-06-26T03:34:55;101280.91;;;20.29;69.21
79703;BME280;69172;52.352;5.006;2023-06-26T03:37:22;101282.63;;;20.30;68.94
79703;BME280;69172;52.352;5.006;2023-06-26T03:43:08;101277.41;;;20.29;68.91
79703;BME280;69172;52.352;5.006;2023-06-26T03:45:33;101278.22;;;20.28;68.89
79703;BME280;69172;52.352;5.006;2023-06-26T03:47:59;101287.81;;;20.27;69.08
79703;BME280;69172;52.352;5.006;2023-06-26T03:50:24;101296.31;;;20.20;69.21
79703;BME280;69172;52.352;5.006;2023-06-26T03:52:49;101292.78;;;20.18;68.99
79703;BME280;69172;52.352;5.006;2023-06-26T03:55:17;101305.00;;;20.19;69.26
79703;BME280;69172;52.352;5.006;2023-06-26T03:57:43;101297.03;;;20.13;68.97
79703;BME280;69172;52.352;5.006;2023-06-26T04:00:09;101287.41;;;20.12;68.63
79703;BME280;69172;52.352;5.006;2023-06-26T04:02:36;101304.13;;;20.18;68.11
79703;BME280;69172;52.352;5.006;2023-06-26T04:05:02;101294.50;;;20.17;68.19
79703;BME280;69172;52.352;5.006;2023-06-26T04:07:30;101304.78;;;20.10;68.03
79703;BME280;69172;52.352;5.006;2023-06-26T04:09:57;101309.09;;;20.08;68.35
79703;BME280;69172;52.352;5.006;2023-06-26T04:12:22;101312.63;;;20.11;68.14
79703;BME280;69172;52.352;5.006;2023-06-26T04:14:48;101324.03;;;20.13;67.74
79703;BME280;69172;52.352;5.006;2023-06-26T04:17:13;101322.00;;;20.03;67.49
79703;BME280;69172;52.352;5.006;2023-06-26T04:19:39;101341.91;;;19.98;67.86
79703;BME280;69172;52.352;5.006;2023-06-26T04:22:04;101357.53;;;19.97;68.02
79703;BME280;69172;52.352;5.006;2023-06-26T04:24:30;101348.63;;;19.89;68.37
79703;BME280;69172;52.352;5.006;2023-06-26T04:26:55;101353.78;;;19.87;68.13
79703;BME280;69172;52.352;5.006;2023-06-26T04:29:25;101356.28;;;19.83;66.87
79703;BME280;69172;52.352;5.006;2023-06-26T04:31:52;101352.06;;;19.88;65.48
79703;BME280;69172;52.352;5.006;2023-06-26T04:34:17;101359.06;;;19.89;64.41
79703;BME280;69172;52.352;5.006;2023-06-26T04:36:43;101360.78;;;19.88;63.98
79703;BME280;69172;52.352;5.006;2023-06-26T04:39:13;101363.56;;;19.94;63.92
79703;BME280;69172;52.352;5.006;2023-06-26T04:41:40;101373.28;;;20.00;64.23
79703;BME280;69172;52.352;5.006;2023-06-26T04:44:06;101378.28;;;19.92;63.63
79703;BME280;69172;52.352;5.006;2023-06-26T04:46:31;101373.56;;;19.78;64.15
79703;BME280;69172;52.352;5.006;2023-06-26T04:48:58;101363.16;;;19.79;64.78
79703;BME280;69172;52.352;5.006;2023-06-26T04:51:24;101367.53;;;19.80;64.91
79703;BME280;69172;52.352;5.006;2023-06-26T04:53:53;101378.59;;;19.70;64.24
79703;BME280;69172;52.352;5.006;2023-06-26T04:56:19;101378.34;;;19.63;64.70
79703;BME280;69172;52.352;5.006;2023-06-26T04:58:44;101372.28;;;19.62;64.52
79703;BME280;69172;52.352;5.006;2023-06-26T05:01:10;101379.50;;;19.72;64.61
79703;BME280;69172;52.352;5.006;2023-06-26T05:03:35;101370.66;;;19.67;65.09
79703;BME280;69172;52.352;5.006;2023-06-26T05:06:02;101378.53;;;19.69;65.09
79703;BME280;69172;52.352;5.006;2023-06-26T05:08:27;101374.22;;;19.71;64.80
79703;BME280;69172;52.352;5.006;2023-06-26T05:10:53;101384.75;;;19.74;64.62
79703;BME280;69172;52.352;5.006;2023-06-26T05:13:18;101389.06;;;19.73;64.86
79703;BME280;69172;52.352;5.006;2023-06-26T05:15:45;101385.69;;;19.76;64.73
79703;BME280;69172;52.352;5.006;2023-06-26T05:18:11;101392.63;;;19.75;65.15
79703;BME280;69172;52.352;5.006;2023-06-26T05:20:37;101387.44;;;19.77;66.25
79703;BME280;69172;52.352;5.006;2023-06-26T05:23:03;101390.16;;;19.81;66.26
79703;BME280;69172;52.352;5.006;2023-06-26T05:25:30;101401.38;;;19.77;66.90
79703;BME280;69172;52.352;5.006;2023-06-26T05:27:56;101404.88;;;19.78;67.07
79703;BME280;69172;52.352;5.006;2023-06-26T05:30:23;101408.22;;;19.72;67.69
79703;BME280;69172;52.352;5.006;2023-06-26T05:32:52;101408.06;;;19.68;67.89
79703;BME280;69172;52.352;5.006;2023-06-26T05:35:20;101424.47;;;19.62;68.26
79703;BME280;69172;52.352;5.006;2023-06-26T05:37:48;101411.34;;;19.60;68.14
79703;BME280;69172;52.352;5.006;2023-06-26T05:40:14;101413.22;;;19.65;68.55
79703;BME280;69172;52.352;5.006;2023-06-26T05:42:40;101411.44;;;19.64;68.29
79703;BME280;69172;52.352;5.006;2023-06-26T05:45:05;101421.19;;;19.71;68.19
79703;BME280;69172;52.352;5.006;2023-06-26T05:47:31;101424.69;;;19.71;67.95
79703;BME280;69172;52.352;5.006;2023-06-26T05:49:56;101432.44;;;19.68;67.94
79703;BME280;69172;52.352;5.006;2023-06-26T05:52:25;101455.84;;;19.65;67.80
79703;BME280;69172;52.352;5.006;2023-06-26T05:54:51;101452.28;;;19.62;68.07
79703;BME280;69172;52.352;5.006;2023-06-26T05:57:16;101461.84;;;19.63;68.60
79703;BME280;69172;52.352;5.006;2023-06-26T05:59:43;101456.50;;;19.56;68.37
79703;BME280;69172;52.352;5.006;2023-06-26T06:02:08;101459.25;;;19.63;68.66
79703;BME280;69172;52.352;5.006;2023-06-26T06:04:34;101462.31;;;19.48;68.33
79703;BME280;69172;52.352;5.006;2023-06-26T06:07:00;101477.88;;;19.45;68.61
79703;BME280;69172;52.352;5.006;2023-06-26T06:09:26;101481.06;;;19.36;69.60
79703;BME280;69172;52.352;5.006;2023-06-26T06:11:51;101473.50;;;19.44;69.84
79703;BME280;69172;52.352;5.006;2023-06-26T06:14:16;101476.00;;;19.41;70.10
79703;BME280;69172;52.352;5.006;2023-06-26T06:16:42;101478.34;;;19.33;69.92
79703;BME280;69172;52.352;5.006;2023-06-26T06:19:07;101490.03;;;19.44;69.76
79703;BME280;69172;52.352;5.006;2023-06-26T06:21:36;101497.31;;;19.28;69.78
79703;BME280;69172;52.352;5.006;2023-06-26T06:24:01;101508.84;;;19.36;69.97
79703;BME280;69172;52.352;5.006;2023-06-26T06:26:27;101509.75;;;19.36;69.76
79703;BME280;69172;52.352;5.006;2023-06-26T06:28:52;101516.91;;;19.42;69.86
79703;BME280;69172;52.352;5.006;2023-06-26T06:31:17;101499.88;;;19.53;69.70
79703;BME280;69172;52.352;5.006;2023-06-26T06:33:43;101513.81;;;19.83;68.57
79703;BME280;69172;52.352;5.006;2023-06-26T06:36:08;101517.53;;;19.91;67.47
79703;BME280;69172;52.352;5.006;2023-06-26T06:38:34;101515.56;;;19.84;67.22
79703;BME280;69172;52.352;5.006;2023-06-26T06:40:59;101526.84;;;19.53;68.20
79703;BME280;69172;52.352;5.006;2023-06-26T06:43:25;101518.22;;;19.56;68.33
79703;BME280;69172;52.352;5.006;2023-06-26T06:45:50;101524.41;;;19.59;68.34
79703;BME280;69172;52.352;5.006;2023-06-26T06:48:15;101520.03;;;19.58;68.77
79703;BME280;69172;52.352;5.006;2023-06-26T06:50:41;101521.25;;;19.70;68.57
79703;BME280;69172;52.352;5.006;2023-06-26T06:53:07;101527.47;;;19.75;67.86
79703;BME280;69172;52.352;5.006;2023-06-26T06:55:33;101535.31;;;19.75;67.12
79703;BME280;69172;52.352;5.006;2023-06-26T06:57:59;101535.63;;;19.85;67.03
79703;BME280;69172;52.352;5.006;2023-06-26T07:00:24;101536.63;;;19.90;67.25
79703;BME280;69172;52.352;5.006;2023-06-26T07:02:50;101538.03;;;20.09;67.02
79703;BME280;69172;52.352;5.006;2023-06-26T07:05:16;101545.75;;;20.04;66.79
79703;BME280;69172;52.352;5.006;2023-06-26T07:07:41;101552.09;;;20.14;66.89
79703;BME280;69172;52.352;5.006;2023-06-26T07:10:09;101551.41;;;20.19;66.68
79703;BME280;69172;52.352;5.006;2023-06-26T07:12:35;101548.88;;;20.23;66.85
79703;BME280;69172;52.352;5.006;2023-06-26T07:15:02;101560.13;;;20.20;66.01
79703;BME280;69172;52.352;5.006;2023-06-26T07:17:29;101560.59;;;20.05;66.19
79703;BME280;69172;52.352;5.006;2023-06-26T07:19:56;101558.13;;;20.11;65.99
79703;BME280;69172;52.352;5.006;2023-06-26T07:22:22;101566.81;;;20.10;65.88
79703;BME280;69172;52.352;5.006;2023-06-26T07:24:48;101561.41;;;20.03;65.89
79703;BME280;69172;52.352;5.006;2023-06-26T07:27:16;101560.31;;;19.96;66.33
79703;BME280;69172;52.352;5.006;2023-06-26T07:29:43;101565.75;;;20.04;65.66
79703;BME280;69172;52.352;5.006;2023-06-26T07:32:08;101563.22;;;20.07;65.58
79703;BME280;69172;52.352;5.006;2023-06-26T07:34:34;101560.91;;;20.17;65.48
79703;BME280;69172;52.352;5.006;2023-06-26T07:36:59;101572.38;;;20.23;64.84
79703;BME280;69172;52.352;5.006;2023-06-26T07:39:25;101576.09;;;20.29;64.38
79703;BME280;69172;52.352;5.006;2023-06-26T07:41:50;101584.53;;;20.20;64.20
79703;BME280;69172;52.352;5.006;2023-06-26T07:44:15;101581.69;;;20.43;63.54
79703;BME280;69172;52.352;5.006;2023-06-26T07:46:41;101569.78;;;20.23;64.15
79703;BME280;69172;52.352;5.006;2023-06-26T07:49:06;101596.56;;;20.15;64.30
79703;BME280;69172;52.352;5.006;2023-06-26T07:51:33;101604.31;;;20.12;64.79
79703;BME280;69172;52.352;5.006;2023-06-26T07:53:58;101598.91;;;20.06;64.68
79703;BME280;69172;52.352;5.006;2023-06-26T07:56:23;101601.38;;;20.02;64.60
79703;BME280;69172;52.352;5.006;2023-06-26T07:58:49;101595.69;;;20.15;64.21
79703;BME280;69172;52.352;5.006;2023-06-26T08:01:20;101606.03;;;20.12;64.15
79703;BME280;69172;52.352;5.006;2023-06-26T08:03:47;101603.63;;;20.19;63.98
79703;BME280;69172;52.352;5.006;2023-06-26T08:06:12;101614.84;;;19.86;63.67
79703;BME280;69172;52.352;5.006;2023-06-26T08:08:37;101613.16;;;19.88;64.28
79703;BME280;69172;52.352;5.006;2023-06-26T08:11:03;101619.75;;;20.05;63.61
79703;BME280;69172;52.352;5.006;2023-06-26T08:13:28;101624.94;;;20.32;62.39
79703;BME280;69172;52.352;5.006;2023-06-26T08:15:55;101629.59;;;20.13;62.69
79703;BME280;69172;52.352;5.006;2023-06-26T08:18:20;101616.78;;;20.23;62.56
79703;BME280;69172;52.352;5.006;2023-06-26T08:20:46;101637.06;;;20.01;62.75
79703;BME280;69172;52.352;5.006;2023-06-26T08:23:11;101627.91;;;19.87;63.10
79703;BME280;69172;52.352;5.006;2023-06-26T08:25:37;101631.66;;;19.67;63.38
79703;BME280;69172;52.352;5.006;2023-06-26T08:28:02;101630.66;;;19.64;63.40
79703;BME280;69172;52.352;5.006;2023-06-26T08:30:28;101634.06;;;19.61;63.45
79703;BME280;69172;52.352;5.006;2023-06-26T08:32:55;101635.00;;;19.63;62.85
79703;BME280;69172;52.352;5.006;2023-06-26T08:35:20;101635.16;;;19.96;62.24
79703;BME280;69172;52.352;5.006;2023-06-26T08:37:46;101651.94;;;20.04;62.00
79703;BME280;69172;52.352;5.006;2023-06-26T08:40:12;101642.06;;;19.94;61.95
79703;BME280;69172;52.352;5.006;2023-06-26T08:42:37;101649.13;;;19.98;62.60
79703;BME280;69172;52.352;5.006;2023-06-26T08:45:03;101658.03;;;20.04;62.00
79703;BME280;69172;52.352;5.006;2023-06-26T08:47:30;101654.31;;;19.96;61.78
79703;BME280;69172;52.352;5.006;2023-06-26T08:50:07;101659.53;;;19.96;61.25
79703;BME280;69172;52.352;5.006;2023-06-26T08:52:36;101655.44;;;20.04;61.78
79703;BME280;69172;52.352;5.006;2023-06-26T08:55:09;101656.53;;;20.11;60.97
79703;BME280;69172;52.352;5.006;2023-06-26T08:57:36;101665.06;;;20.05;60.38
79703;BME280;69172;52.352;5.006;2023-06-26T09:00:02;101657.59;;;19.89;61.05
79703;BME280;69172;52.352;5.006;2023-06-26T09:02:28;101675.09;;;19.93;60.99
79703;BME280;69172;52.352;5.006;2023-06-26T09:04:54;101663.69;;;20.18;59.56
79703;BME280;69172;52.352;5.006;2023-06-26T09:07:20;101672.69;;;20.28;58.86
79703;BME280;69172;52.352;5.006;2023-06-26T09:09:45;101673.25;;;20.17;59.43
79703;BME280;69172;52.352;5.006;2023-06-26T09:12:11;101682.13;;;19.94;59.58
79703;BME280;69172;52.352;5.006;2023-06-26T09:14:37;101674.59;;;20.05;59.33
79703;BME280;69172;52.352;5.006;2023-06-26T09:17:03;101696.31;;;19.76;57.50
79703;BME280;69172;52.352;5.006;2023-06-26T09:19:28;101683.06;;;19.70;59.05
79703;BME280;69172;52.352;5.006;2023-06-26T09:21:54;101679.88;;;19.78;59.27
79703;BME280;69172;52.352;5.006;2023-06-26T09:24:21;101685.47;;;19.90;58.88
79703;BME280;69172;52.352;5.006;2023-06-26T09:26:47;101699.84;;;20.04;57.39
79703;BME280;69172;52.352;5.006;2023-06-26T09:29:13;101692.47;;;19.91;57.07
79703;BME280;69172;52.352;5.006;2023-06-26T09:31:39;101695.69;;;19.84;56.77
79703;BME280;69172;52.352;5.006;2023-06-26T09:34:05;101712.41;;;19.89;55.64
79703;BME280;69172;52.352;5.006;2023-06-26T09:36:31;101705.13;;;19.79;55.27
79703;BME280;69172;52.352;5.006;2023-06-26T09:39:07;101715.19;;;19.67;55.79
79703;BME280;69172;52.352;5.006;2023-06-26T09:41:36;101711.53;;;19.89;55.62
79703;BME280;69172;52.352;5.006;2023-06-26T09:44:04;101704.38;;;20.11;55.38
79703;BME280;69172;52.352;5.006;2023-06-26T09:46:31;101714.34;;;20.23;52.73
79703;BME280;69172;52.352;5.006;2023-06-26T09:49:10;101713.53;;;20.24;52.22
79703;BME280;69172;52.352;5.006;2023-06-26T09:51:37;101704.16;;;20.31;51.01
79703;BME280;69172;52.352;5.006;2023-06-26T09:54:04;101740.03;;;20.36;50.98
79703;BME280;69172;52.352;5.006;2023-06-26T09:56:32;101737.78;;;19.93;51.60
79703;BME280;69172;52.352;5.006;2023-06-26T09:59:00;101749.44;;;20.04;52.51
79703;BME280;69172;52.352;5.006;2023-06-26T10:01:31;101733.00;;;19.80;51.21
79703;BME280;69172;52.352;5.006;2023-06-26T10:03:56;101733.44;;;19.94;50.69
79703;BME280;69172;52.352;5.006;2023-06-26T10:06:46;101742.59;;;20.08;51.19
79703;BME280;69172;52.352;5.006;2023-06-26T10:09:13;101742.72;;;20.11;51.06
79703;BME280;69172;52.352;5.006;2023-06-26T10:12:03;101742.16;;;20.21;50.55
79703;BME280;69172;52.352;5.006;2023-06-26T10:14:35;101753.88;;;20.34;50.61
79703;BME280;69172;52.352;5.006;2023-06-26T10:17:03;101749.50;;;20.33;50.69
79703;BME280;69172;52.352;5.006;2023-06-26T10:19:30;101748.41;;;20.25;50.96
79703;BME280;69172;52.352;5.006;2023-06-26T10:21:58;101761.88;;;20.38;51.08
79703;BME280;69172;52.352;5.006;2023-06-26T10:24:26;101781.34;;;20.49;50.76
79703;BME280;69172;52.352;5.006;2023-06-26T10:27:02;101778.00;;;20.53;52.07
79703;BME280;69172;52.352;5.006;2023-06-26T10:29:30;101760.41;;;20.48;51.16
79703;BME280;69172;52.352;5.006;2023-06-26T10:32:00;101764.44;;;20.37;50.78
79703;BME280;69172;52.352;5.006;2023-06-26T10:34:26;101750.34;;;20.60;51.38
79703;BME280;69172;52.352;5.006;2023-06-26T10:37:02;101758.75;;;20.79;51.87
79703;BME280;69172;52.352;5.006;2023-06-26T10:39:48;101758.00;;;20.84;51.25
79703;BME280;69172;52.352;5.006;2023-06-26T10:42:34;101776.91;;;20.45;50.87
79703;BME280;69172;52.352;5.006;2023-06-26T10:45:13;101779.31;;;20.39;52.50
79703;BME280;69172;52.352;5.006;2023-06-26T10:47:40;101770.22;;;20.27;53.22
79703;BME280;69172;52.352;5.006;2023-06-26T10:50:20;101780.94;;;20.36;51.43
79703;BME280;69172;52.352;5.006;2023-06-26T10:55:57;101794.84;;;20.08;52.71
79703;BME280;69172;52.352;5.006;2023-06-26T11:03:44;101815.75;;;20.35;50.67
79703;BME280;69172;52.352;5.006;2023-06-26T11:06:13;101817.50;;;20.62;48.52
79703;BME280;69172;52.352;5.006;2023-06-26T11:08:59;101815.00;;;20.65;49.06
79703;BME280;69172;52.352;5.006;2023-06-26T11:14:20;101821.88;;;20.92;48.31
79703;BME280;69172;52.352;5.006;2023-06-26T11:16:46;101807.81;;;20.88;47.63
79703;BME280;69172;52.352;5.006;2023-06-26T11:19:13;101815.00;;;20.95;48.80
79703;BME280;69172;52.352;5.006;2023-06-26T11:21:39;101816.91;;;21.01;48.65
79703;BME280;69172;52.352;5.006;2023-06-26T11:24:06;101812.41;;;20.95;48.99
79703;BME280;69172;52.352;5.006;2023-06-26T11:26:38;101818.59;;;21.28;48.05
79703;BME280;69172;52.352;5.006;2023-06-26T11:29:03;101823.28;;;21.09;48.86
79703;BME280;69172;52.352;5.006;2023-06-26T11:31:33;101836.19;;;21.04;49.59
79703;BME280;69172;52.352;5.006;2023-06-26T11:34:00;101842.94;;;21.26;50.09
79703;BME280;69172;52.352;5.006;2023-06-26T11:36:27;101844.63;;;21.24;50.18
79703;BME280;69172;52.352;5.006;2023-06-26T11:38:59;101856.91;;;21.26;49.20
79703;BME280;69172;52.352;5.006;2023-06-26T11:41:29;101855.72;;;21.15;50.17
79703;BME280;69172;52.352;5.006;2023-06-26T11:43:55;101868.16;;;21.22;51.50
79703;BME280;69172;52.352;5.006;2023-06-26T11:46:22;101858.22;;;21.42;51.72
79703;BME280;69172;52.352;5.006;2023-06-26T11:48:48;101863.03;;;21.27;50.76
79703;BME280;69172;52.352;5.006;2023-06-26T11:51:15;101865.31;;;20.87;51.76
79703;BME280;69172;52.352;5.006;2023-06-26T11:53:45;101872.34;;;20.89;51.85
79703;BME280;69172;52.352;5.006;2023-06-26T11:56:12;101878.50;;;20.63;52.58
79703;BME280;69172;52.352;5.006;2023-06-26T11:59:14;101874.19;;;20.92;51.94
79703;BME280;69172;52.352;5.006;2023-06-26T12:01:41;101881.22;;;20.94;52.27
79703;BME280;69172;52.352;5.006;2023-06-26T12:04:10;101880.84;;;21.09;52.25
79703;BME280;69172;52.352;5.006;2023-06-26T12:06:38;101887.03;;;21.42;51.88
79703;BME280;69172;52.352;5.006;2023-06-26T12:09:08;101892.84;;;21.04;51.84
79703;BME280;69172;52.352;5.006;2023-06-26T12:11:36;101874.38;;;20.71;53.22
79703;BME280;69172;52.352;5.006;2023-06-26T12:14:03;101885.38;;;20.88;52.63
79703;BME280;69172;52.352;5.006;2023-06-26T12:16:30;101887.66;;;21.05;50.97
79703;BME280;69172;52.352;5.006;2023-06-26T12:19:03;101907.50;;;20.44;51.61
79703;BME280;69172;52.352;5.006;2023-06-26T12:24:06;101900.53;;;20.44;53.06
79703;BME280;69172;52.352;5.006;2023-06-26T12:26:32;101909.41;;;20.49;53.51
79703;BME280;69172;52.352;5.006;2023-06-26T12:29:05;101911.97;;;20.46;53.93
79703;BME280;69172;52.352;5.006;2023-06-26T12:31:32;101902.88;;;20.62;54.50
79703;BME280;69172;52.352;5.006;2023-06-26T12:33:57;101903.81;;;20.37;53.83
79703;BME280;69172;52.352;5.006;2023-06-26T12:36:23;101917.53;;;20.06;55.22
79703;BME280;69172;52.352;5.006;2023-06-26T12:38:48;101906.03;;;20.78;53.82
79703;BME280;69172;52.352;5.006;2023-06-26T12:41:15;101934.75;;;21.05;52.41
79703;BME280;69172;52.352;5.006;2023-06-26T12:43:41;101912.13;;;20.79;52.56
79703;BME280;69172;52.352;5.006;2023-06-26T12:46:07;101931.13;;;20.22;54.35
79703;BME280;69172;52.352;5.006;2023-06-26T12:48:44;101919.06;;;20.00;54.85
79703;BME280;69172;52.352;5.006;2023-06-26T12:51:16;101935.00;;;20.07;54.70
79703;BME280;69172;52.352;5.006;2023-06-26T12:53:42;101922.03;;;20.36;53.94
79703;BME280;69172;52.352;5.006;2023-06-26T12:56:08;101917.88;;;20.17;53.58
79703;BME280;69172;52.352;5.006;2023-06-26T12:58:35;101930.13;;;20.18;52.85
79703;BME280;69172;52.352;5.006;2023-06-26T13:01:04;101926.03;;;20.01;53.25
79703;BME280;69172;52.352;5.006;2023-06-26T13:03:29;101921.56;;;19.73;54.19
79703;BME280;69172;52.352;5.006;2023-06-26T13:05:55;101929.13;;;19.89;53.83
79703;BME280;69172;52.352;5.006;2023-06-26T13:08:20;101927.06;;;20.06;55.13
79703;BME280;69172;52.352;5.006;2023-06-26T13:10:46;101923.66;;;20.07;54.08